Highwood, Illinois
Current Conditions -  °F | °C
As of 2:31 AM on Tuesday 21 Oct 2014 (Local Time) from KPWK Reporting Station
Overcast Overcast  
Wind Chill: 52°   Ceiling: 3000
Heat Index: 52°   Visibility: 10mi
Dew Point: 41°   Wind: 8mph
Humidity: 66%   Direction: 350°N
Pressure: 30.03"   Gusts: NA
Location:  42.2°N, 87.81°W
Report Text: KPWK 210731Z AUTO 35007KT 10SM FEW023 BKN030 OVC045 11/05 A3003 RMK AO2 T01110050
Loading
Personal Weather Stations






























Interactive Weather Map
Tropical Storm Tracking
New forecast layout! Learn more

10-Day Weather Forecast

Advertisements
Track Severe Weather on mobile